createdAt,value
2018-10-18T00:00:22.300Z,395.83
2018-10-18T00:02:53.933Z,350.70
2018-10-18T00:05:26.061Z,275.30
2018-10-18T00:07:58.779Z,409.27
2018-10-18T00:10:31.247Z,394.93
2018-10-18T00:13:03.372Z,454.57
2018-10-18T00:15:35.244Z,393.63
2018-10-18T00:18:07.357Z,407.40
2018-10-18T00:20:39.576Z,358.73
2018-10-18T00:23:11.917Z,418.10
2018-10-18T00:25:44.832Z,394.30
2018-10-18T00:28:16.809Z,437.30
2018-10-18T00:30:48.892Z,289.97
2018-10-18T00:33:21.532Z,308.17
2018-10-18T00:35:53.836Z,329.30
2018-10-18T00:38:25.945Z,310.57
2018-10-18T00:40:57.952Z,293.43
2018-10-18T00:43:29.977Z,344.77
2018-10-18T00:46:01.792Z,270.13
2018-10-18T00:48:33.728Z,312.77
2018-10-18T00:51:05.288Z,255.37
2018-10-18T00:53:37.968Z,239.50
2018-10-18T00:56:10.038Z,286.23
2018-10-18T00:58:42.713Z,248.10
2018-10-18T01:01:15.555Z,450.10
2018-10-18T01:03:47.005Z,253.97
2018-10-18T01:06:19.308Z,354.53
2018-10-18T01:08:52.173Z,266.07
2018-10-18T01:11:24.580Z,340.07
2018-10-18T01:13:56.397Z,273.97
2018-10-18T01:16:28.504Z,287.83
2018-10-18T01:19:00.552Z,324.53
2018-10-18T01:21:32.675Z,314.87
2018-10-18T01:24:04.616Z,224.47
2018-10-18T01:26:36.825Z,161.07
2018-10-18T01:29:09.133Z,186.57
2018-10-18T01:31:41.009Z,249.83
2018-10-18T01:34:12.676Z,177.40
2018-10-18T01:36:44.555Z,188.97
2018-10-18T01:39:16.824Z,153.57
2018-10-18T01:41:48.772Z,227.07
2018-10-18T01:44:20.800Z,150.57
2018-10-18T01:46:53.953Z,160.20
2018-10-18T01:49:25.872Z,188.20
2018-10-18T01:51:57.976Z,186.03
2018-10-18T01:54:30.057Z,152.50
2018-10-18T01:57:01.957Z,153.57
2018-10-18T01:59:34.020Z,132.47
2018-10-18T02:02:06.606Z,504.77
2018-10-18T02:04:38.990Z,183.43
2018-10-18T02:07:10.953Z,169.27
2018-10-18T02:09:43.881Z,227.97
2018-10-18T02:12:16.173Z,306.63
2018-10-18T02:14:47.692Z,153.73
2018-10-18T02:17:19.624Z,135.70
2018-10-18T02:19:51.640Z,256.20
2018-10-18T02:22:24.336Z,350.27
2018-10-18T02:24:57.601Z,167.33
2018-10-18T02:27:29.059Z,216.37
2018-10-18T02:30:00.570Z,213.90
2018-10-18T02:32:33.384Z,162.47
2018-10-18T02:35:06.133Z,243.37
2018-10-18T02:37:37.969Z,157.83
2018-10-18T02:40:10.027Z,227.43
2018-10-18T02:42:42.160Z,160.53
2018-10-18T02:45:13.624Z,238.37
2018-10-18T02:47:45.914Z,154.23
2018-10-18T02:50:17.593Z,169.13
2018-10-18T02:52:49.420Z,188.07
2018-10-18T02:55:20.839Z,351.70
2018-10-18T02:57:53.122Z,358.20
2018-10-18T03:00:25.518Z,441.30
2018-10-18T03:02:57.732Z,372.80
2018-10-18T03:05:29.436Z,190.50
2018-10-18T03:08:00.765Z,186.53
2018-10-18T03:10:32.437Z,231.97
2018-10-18T03:13:04.049Z,256.83
2018-10-18T03:15:35.912Z,228.07
2018-10-18T03:18:08.531Z,214.67
2018-10-18T03:20:40.341Z,211.03
2018-10-18T03:23:12.481Z,185.93
2018-10-18T03:25:44.217Z,253.30
2018-10-18T03:28:15.989Z,280.83
2018-10-18T03:30:47.952Z,315.10
2018-10-18T03:33:19.478Z,190.73
2018-10-18T03:35:51.254Z,263.83
2018-10-18T03:38:22.956Z,293.53
2018-10-18T03:40:55.033Z,275.03
2018-10-18T03:43:26.472Z,158.10
2018-10-18T03:45:57.971Z,222.07
2018-10-18T03:48:30.129Z,199.53
2018-10-18T03:51:01.589Z,151.23
2018-10-18T03:53:33.601Z,119.87
2018-10-18T03:56:05.139Z,130.33
2018-10-18T03:58:36.932Z,150.37
2018-10-18T04:01:08.797Z,141.43
2018-10-18T04:03:40.241Z,149.10
2018-10-18T04:06:11.827Z,154.47
2018-10-18T04:08:43.352Z,219.67
2018-10-18T04:11:14.968Z,127.80
2018-10-18T04:13:46.371Z,218.27
2018-10-18T04:16:18.327Z,271.90
2018-10-18T04:18:50.113Z,427.47
2018-10-18T04:21:21.628Z,126.53
2018-10-18T04:23:53.240Z,123.50
2018-10-18T04:26:25.010Z,161.17
2018-10-18T04:28:57.008Z,92.20
2018-10-18T04:31:29.233Z,180.77
2018-10-18T04:34:00.681Z,139.37
2018-10-18T04:36:32.806Z,163.20
2018-10-18T04:39:05.929Z,164.50
2018-10-18T04:41:37.728Z,157.80
2018-10-18T04:44:09.604Z,136.93
2018-10-18T04:46:41.372Z,200.60
2018-10-18T04:49:12.900Z,137.03
2018-10-18T04:51:44.291Z,220.87
2018-10-18T04:54:15.813Z,138.60
2018-10-18T04:56:47.585Z,142.63
2018-10-18T04:59:19.235Z,200.43
2018-10-18T05:01:51.104Z,222.23
2018-10-18T05:04:22.920Z,252.00
2018-10-18T05:06:54.507Z,142.53
2018-10-18T05:09:26.022Z,160.17
2018-10-18T05:11:57.659Z,196.13
2018-10-18T05:14:29.757Z,165.43
2018-10-18T05:17:01.585Z,145.00
2018-10-18T05:19:33.052Z,196.17
2018-10-18T05:22:04.778Z,151.13
2018-10-18T05:24:36.140Z,183.30
2018-10-18T05:27:08.446Z,158.30
2018-10-18T05:29:40.415Z,153.50
2018-10-18T05:32:13.247Z,170.83
2018-10-18T05:34:45.247Z,174.53
2018-10-18T05:37:17.211Z,161.80
2018-10-18T05:39:48.992Z,164.43
2018-10-18T05:42:20.543Z,161.33
2018-10-18T05:44:52.516Z,159.57
2018-10-18T05:47:24.304Z,126.90
2018-10-18T05:49:56.548Z,137.40
2018-10-18T05:52:28.388Z,121.37
2018-10-18T05:54:59.996Z,116.13
2018-10-18T05:57:31.958Z,131.93
2018-10-18T06:00:03.725Z,135.07
2018-10-18T06:02:35.318Z,112.23
2018-10-18T06:05:08.176Z,112.17
2018-10-18T06:07:40.001Z,106.70
2018-10-18T06:10:21.596Z,99.20
2018-10-18T06:12:54.094Z,91.47
2018-10-18T06:15:25.855Z,98.90
2018-10-18T06:17:57.632Z,126.37
2018-10-18T06:20:29.345Z,107.27
2018-10-18T06:23:01.105Z,97.33
2018-10-18T06:25:33.273Z,88.07
2018-10-18T06:28:04.807Z,100.50
2018-10-18T06:30:36.748Z,90.60
2018-10-18T06:33:08.348Z,102.70
2018-10-18T06:35:39.962Z,90.93
2018-10-18T06:38:12.773Z,87.77
2018-10-18T06:40:44.542Z,86.37
2018-10-18T06:43:17.930Z,100.10
2018-10-18T06:45:50.724Z,97.40
2018-10-18T06:48:23.040Z,92.87
2018-10-18T06:50:56.691Z,105.83
2018-10-18T06:53:28.984Z,114.73
2018-10-18T06:56:01.064Z,102.57
2018-10-18T06:58:32.692Z,104.63
2018-10-18T07:01:04.496Z,110.03
2018-10-18T07:03:36.497Z,120.30
2018-10-18T07:06:08.299Z,102.50
2018-10-18T07:08:39.845Z,104.70
2018-10-18T07:11:11.437Z,133.50
2018-10-18T07:13:43.601Z,98.07
2018-10-18T07:16:15.680Z,95.10
2018-10-18T07:18:47.308Z,105.90
2018-10-18T07:21:18.902Z,124.13
2018-10-18T07:23:50.468Z,80.63
2018-10-18T07:26:22.020Z,79.93
2018-10-18T07:28:53.540Z,70.03
2018-10-18T07:31:34.493Z,68.67
2018-10-18T07:34:06.537Z,69.97
2018-10-18T07:36:38.558Z,64.03
2018-10-18T07:39:14.701Z,60.53
2018-10-18T07:41:47.278Z,50.73
2018-10-18T07:44:22.801Z,53.27
2018-10-18T07:47:05.162Z,51.70
2018-10-18T07:49:42.927Z,53.97
2018-10-18T07:52:29.075Z,49.77
2018-10-18T07:55:03.480Z,46.73
2018-10-18T07:57:37.003Z,45.43
2018-10-18T08:00:13.369Z,45.17
2018-10-18T08:02:59.936Z,42.73
2018-10-18T08:05:33.043Z,41.87
2018-10-18T08:08:05.158Z,44.27
2018-10-18T08:10:36.778Z,46.97
2018-10-18T08:13:08.371Z,43.53
2018-10-18T08:15:39.949Z,44.53
2018-10-18T08:18:12.094Z,44.70
2018-10-18T08:20:44.666Z,44.37
2018-10-18T08:23:17.061Z,45.13
2018-10-18T08:25:49.739Z,45.90
2018-10-18T08:28:21.396Z,47.13
2018-10-18T08:30:56.036Z,45.73
2018-10-18T08:33:27.653Z,45.47
2018-10-18T08:35:59.345Z,45.00
2018-10-18T08:38:31.255Z,45.67
2018-10-18T08:41:17.470Z,51.40
2018-10-18T08:43:49.042Z,46.60
2018-10-18T08:46:21.043Z,46.60
2018-10-18T08:48:52.871Z,47.20
2018-10-18T08:51:24.935Z,51.03
2018-10-18T08:53:56.684Z,54.37
2018-10-18T08:56:28.401Z,48.47
2018-10-18T08:59:00.062Z,44.47
2018-10-18T09:01:32.024Z,54.33
2018-10-18T09:06:48.300Z,51.03
2018-10-18T09:09:20.157Z,53.77
2018-10-18T09:11:52.860Z,53.13
2018-10-18T09:14:24.942Z,49.73
2018-10-18T09:16:56.586Z,54.40
2018-10-18T09:19:28.150Z,54.53
2018-10-18T09:21:59.989Z,58.43
2018-10-18T09:24:31.690Z,53.47
2018-10-18T09:27:06.487Z,56.43
2018-10-18T09:29:38.101Z,52.53
2018-10-18T09:32:10.740Z,54.97
2018-10-18T09:34:42.309Z,57.97
2018-10-18T09:37:13.971Z,55.33
2018-10-18T09:39:45.894Z,53.87
2018-10-18T09:42:17.518Z,57.30
2018-10-18T09:44:50.161Z,57.87
2018-10-18T09:47:22.835Z,57.93
2018-10-18T09:49:54.541Z,54.80
2018-10-18T09:52:26.372Z,54.40
2018-10-18T09:54:58.624Z,62.57
2018-10-18T09:57:30.060Z,66.23
2018-10-18T10:00:01.612Z,63.57
2018-10-18T10:02:41.998Z,56.93
2018-10-18T10:05:13.581Z,66.70
2018-10-18T10:07:45.245Z,70.63
2018-10-18T10:10:16.757Z,64.83
2018-10-18T10:12:48.769Z,59.63
2018-10-18T10:15:20.271Z,56.53
2018-10-18T10:17:52.085Z,59.37
2018-10-18T10:20:23.720Z,63.10
2018-10-18T10:22:55.988Z,54.57
2018-10-18T10:25:28.169Z,50.43
2018-10-18T10:27:59.768Z,43.87
2018-10-18T10:30:32.764Z,40.67
2018-10-18T10:33:04.502Z,41.87
2018-10-18T10:35:37.253Z,34.53
2018-10-18T10:38:08.870Z,39.27
2018-10-18T10:40:40.392Z,34.10
2018-10-18T10:43:12.505Z,33.70
2018-10-18T10:45:44.283Z,34.13
2018-10-18T10:48:15.917Z,29.57
2018-10-18T10:50:47.440Z,27.17
2018-10-18T10:53:19.347Z,26.70
2018-10-18T10:55:51.373Z,22.47
2018-10-18T10:58:23.844Z,20.67
2018-10-18T11:01:27.741Z,16.67
2018-10-18T11:04:01.557Z,10.07
2018-10-18T11:06:33.133Z,8.03
2018-10-18T11:09:05.262Z,8.30
2018-10-18T11:11:36.804Z,7.03
2018-10-18T11:14:08.411Z,9.97
2018-10-18T11:16:40.101Z,7.67
2018-10-18T11:19:12.401Z,9.30
2018-10-18T11:21:44.887Z,13.87
2018-10-18T11:24:16.578Z,13.10
2018-10-18T11:26:48.545Z,13.97
2018-10-18T11:29:20.564Z,16.53
2018-10-18T11:31:52.055Z,13.23
2018-10-18T11:34:23.637Z,12.60
2018-10-18T11:36:55.328Z,14.10
2018-10-18T11:39:28.453Z,19.47
2018-10-18T11:42:00.191Z,14.70
2018-10-18T11:44:37.130Z,12.33
2018-10-18T11:47:09.065Z,11.20
2018-10-18T11:49:42.598Z,15.33
2018-10-18T11:52:17.245Z,16.90
2018-10-18T11:54:49.313Z,17.50
2018-10-18T11:57:21.587Z,16.03
2018-10-18T11:59:53.176Z,20.67
2018-10-18T12:02:25.309Z,14.30
2018-10-18T12:04:57.029Z,19.60
2018-10-18T12:07:29.014Z,13.87
2018-10-18T12:10:00.786Z,16.10
2018-10-18T12:12:32.634Z,18.17
2018-10-18T12:15:04.620Z,16.60
2018-10-18T12:17:36.533Z,12.03
2018-10-18T12:20:10.153Z,14.30
2018-10-18T12:22:42.041Z,14.40
2018-10-18T12:25:14.245Z,18.00
2018-10-18T12:27:50.320Z,11.30
2018-10-18T12:30:23.970Z,11.27
2018-10-18T12:32:55.476Z,16.03
2018-10-18T12:35:27.021Z,15.37
2018-10-18T12:37:58.508Z,10.73
2018-10-18T12:40:30.335Z,12.73
2018-10-18T12:43:02.125Z,10.67
2018-10-18T12:45:33.597Z,13.53
2018-10-18T12:48:05.203Z,11.13
2018-10-18T12:50:36.656Z,9.83
2018-10-18T12:53:08.383Z,12.80
2018-10-18T12:55:39.992Z,9.40
2018-10-18T12:58:11.767Z,10.60
2018-10-18T13:00:43.331Z,14.43
2018-10-18T13:03:14.783Z,12.10
2018-10-18T13:05:46.873Z,17.00
2018-10-18T13:08:18.460Z,13.20
2018-10-18T13:10:50.059Z,9.57
2018-10-18T13:13:21.650Z,10.00
2018-10-18T13:15:53.253Z,10.53
2018-10-18T13:18:24.865Z,9.07
2018-10-18T13:20:56.752Z,10.80
2018-10-18T13:23:28.195Z,10.00
2018-10-18T13:26:00.120Z,7.20
2018-10-18T13:28:32.272Z,6.83
2018-10-18T13:31:04.182Z,9.83
2018-10-18T13:33:36.951Z,6.60
2018-10-18T13:36:08.956Z,5.97
2018-10-18T13:38:41.107Z,7.13
2018-10-18T13:41:12.549Z,5.67
2018-10-18T13:43:44.137Z,7.70
2018-10-18T13:46:15.666Z,7.27
2018-10-18T13:48:48.012Z,8.83
2018-10-18T13:51:20.075Z,6.00
2018-10-18T13:53:51.690Z,6.20
2018-10-18T13:56:23.704Z,6.90
2018-10-18T13:58:55.214Z,5.47
2018-10-18T14:01:27.716Z,6.00
2018-10-18T14:04:00.521Z,8.47
2018-10-18T14:06:32.644Z,7.97
2018-10-18T14:09:05.472Z,8.70
2018-10-18T14:11:38.412Z,6.47
2018-10-18T14:14:10.065Z,7.00
2018-10-18T14:16:41.674Z,4.50
2018-10-18T14:19:13.341Z,7.13
2018-10-18T14:21:45.001Z,5.67
2018-10-18T14:24:17.774Z,4.43
2018-10-18T14:26:49.297Z,5.00
2018-10-18T14:29:21.793Z,4.63
2018-10-18T14:31:53.249Z,4.67
2018-10-18T14:34:25.100Z,4.90
2018-10-18T14:36:56.844Z,4.77
2018-10-18T14:39:28.385Z,6.27
2018-10-18T14:42:00.497Z,4.77
2018-10-18T14:44:31.938Z,5.20
2018-10-18T14:47:03.676Z,4.87
2018-10-18T14:49:35.531Z,4.93
2018-10-18T14:52:07.307Z,5.87
2018-10-18T14:54:39.169Z,4.63
2018-10-18T14:57:11.717Z,6.33
2018-10-18T14:59:43.480Z,5.57
2018-10-18T15:02:15.456Z,5.37
2018-10-18T15:04:48.006Z,5.33
2018-10-18T15:07:19.941Z,3.80
2018-10-18T15:09:51.544Z,4.90
2018-10-18T15:12:23.264Z,5.10
2018-10-18T15:14:54.769Z,4.47
2018-10-18T15:17:26.301Z,4.90
2018-10-18T15:19:57.983Z,4.20
2018-10-18T15:22:29.640Z,5.30
2018-10-18T15:25:01.596Z,5.23
2018-10-18T15:27:33.454Z,7.93
2018-10-18T15:30:04.951Z,5.87
2018-10-18T15:32:36.640Z,6.70
2018-10-18T15:35:10.555Z,6.97
2018-10-18T15:37:42.515Z,5.03
2018-10-18T15:40:14.254Z,6.07
2018-10-18T15:42:45.665Z,3.40
2018-10-18T15:45:18.250Z,4.67
2018-10-18T15:47:49.893Z,8.30
2018-10-18T15:50:21.617Z,2.47
2018-10-18T15:52:53.595Z,4.60
2018-10-18T15:55:25.145Z,6.30
2018-10-18T15:57:56.817Z,3.97
2018-10-18T16:00:28.447Z,4.53
2018-10-18T16:03:00.262Z,8.27
2018-10-18T16:05:31.784Z,4.40
2018-10-18T16:08:03.386Z,3.50
2018-10-18T16:10:35.603Z,5.23
2018-10-18T16:13:07.758Z,4.87
2018-10-18T16:15:39.499Z,2.80
2018-10-18T16:18:12.068Z,4.23
2018-10-18T16:20:43.745Z,5.27
2018-10-18T16:23:15.519Z,4.67
2018-10-18T16:25:48.823Z,4.10
2018-10-18T16:28:21.693Z,3.73
2018-10-18T16:30:53.196Z,7.20
2018-10-18T16:33:24.690Z,4.57
2018-10-18T16:35:56.325Z,3.83
2018-10-18T16:38:28.162Z,4.90
2018-10-18T16:41:31.576Z,5.90
2018-10-18T16:44:04.151Z,5.93
2018-10-18T16:46:35.768Z,7.40
2018-10-18T16:49:07.930Z,3.30
2018-10-18T16:51:39.501Z,2.90
2018-10-18T16:54:11.126Z,4.33
2018-10-18T16:56:42.884Z,5.43
2018-10-18T16:59:14.452Z,4.87
2018-10-18T17:01:46.824Z,5.37
2018-10-18T17:04:18.963Z,4.10
2018-10-18T17:06:50.701Z,4.10
2018-10-18T17:09:23.221Z,11.50
2018-10-18T17:11:54.716Z,4.73
2018-10-18T17:14:26.321Z,7.33
2018-10-18T17:16:58.349Z,4.87
2018-10-18T17:19:32.939Z,6.07
2018-10-18T17:22:04.764Z,9.90
2018-10-18T17:24:37.084Z,7.23
2018-10-18T17:27:08.945Z,6.77
2018-10-18T17:29:46.589Z,3.97
2018-10-18T17:32:26.609Z,5.57
2018-10-18T17:35:03.794Z,6.37
2018-10-18T17:37:40.385Z,4.67
2018-10-18T17:40:12.807Z,5.27
2018-10-18T17:42:44.950Z,6.63
2018-10-18T17:45:16.838Z,4.10
2018-10-18T17:47:48.792Z,6.53
2018-10-18T17:50:21.629Z,8.50
2018-10-18T17:52:53.614Z,4.60
2018-10-18T17:55:25.472Z,4.43
2018-10-18T17:57:57.362Z,6.63
2018-10-18T18:00:29.340Z,6.10
2018-10-18T18:03:02.481Z,8.20
2018-10-18T18:05:34.538Z,5.30
2018-10-18T18:08:06.949Z,5.33
2018-10-18T18:10:39.732Z,5.97
2018-10-18T18:13:13.099Z,6.40
2018-10-18T18:15:45.686Z,3.50
2018-10-18T18:18:17.601Z,7.13
2018-10-18T18:20:51.215Z,3.83
2018-10-18T18:23:23.136Z,5.23
2018-10-18T18:25:55.667Z,4.17
2018-10-18T18:28:27.721Z,3.43
2018-10-18T18:30:59.764Z,7.37
2018-10-18T18:33:31.846Z,5.17
2018-10-18T18:36:03.838Z,7.23
2018-10-18T18:38:35.707Z,7.13
2018-10-18T18:41:08.725Z,6.23
2018-10-18T18:43:40.618Z,7.50
2018-10-18T18:46:12.401Z,6.63
2018-10-18T18:48:45.139Z,8.57
2018-10-18T18:51:18.089Z,11.73
2018-10-18T18:53:49.847Z,8.37
2018-10-18T18:56:22.462Z,6.80
2018-10-18T18:58:54.253Z,5.13
2018-10-18T19:01:26.556Z,4.43
2018-10-18T19:03:58.385Z,7.60
2018-10-18T19:06:30.257Z,9.07
2018-10-18T19:09:02.309Z,8.53
2018-10-18T19:11:34.273Z,6.10
2018-10-18T19:14:06.712Z,5.20
2018-10-18T19:16:38.792Z,6.33
2018-10-18T19:19:11.031Z,3.43
2018-10-18T19:21:43.923Z,6.63
2018-10-18T19:24:15.902Z,8.83
2018-10-18T19:26:48.285Z,7.87
2018-10-18T19:29:20.945Z,10.67
2018-10-18T19:31:53.469Z,8.40
2018-10-18T19:34:25.606Z,8.33
2018-10-18T19:36:57.636Z,9.87
2018-10-18T19:39:29.846Z,6.00
2018-10-18T19:42:01.769Z,6.23
2018-10-18T19:44:34.670Z,7.87
2018-10-18T19:47:06.576Z,7.93
2018-10-18T19:49:38.420Z,6.73
2018-10-18T19:52:10.325Z,5.40
2018-10-18T19:54:42.273Z,6.33
2018-10-18T19:57:14.120Z,5.43
2018-10-18T19:59:45.988Z,6.00
2018-10-18T20:02:17.757Z,6.97
2018-10-18T20:04:49.856Z,5.87
2018-10-18T20:07:22.322Z,5.20
2018-10-18T20:09:54.845Z,6.27
2018-10-18T20:12:26.611Z,5.03
2018-10-18T20:14:58.557Z,6.23
2018-10-18T20:17:30.384Z,8.13
2018-10-18T20:20:03.108Z,8.37
2018-10-18T20:22:35.431Z,7.10
2018-10-18T20:25:08.985Z,8.97
2018-10-18T20:27:40.834Z,9.10
2018-10-18T20:30:15.659Z,10.23
2018-10-18T20:32:48.073Z,12.70
2018-10-18T20:35:20.052Z,8.23
2018-10-18T20:37:51.881Z,11.17
2018-10-18T20:40:23.813Z,13.03
2018-10-18T20:42:55.618Z,9.70
2018-10-18T20:45:32.136Z,7.93
2018-10-18T20:48:04.200Z,10.07
2018-10-18T20:50:35.764Z,9.37
2018-10-18T20:53:07.554Z,9.30
2018-10-18T20:55:39.470Z,9.93
2018-10-18T20:58:11.220Z,10.70
2018-10-18T21:00:43.023Z,14.47
2018-10-18T21:03:15.369Z,9.77
2018-10-18T21:05:47.813Z,10.40
2018-10-18T21:08:22.121Z,10.07
2018-10-18T21:10:54.249Z,12.33
2018-10-18T21:13:26.203Z,11.77
2018-10-18T21:15:58.281Z,11.10
2018-10-18T21:18:30.929Z,12.17
2018-10-18T21:21:03.074Z,7.97
2018-10-18T21:23:35.217Z,9.47
2018-10-18T21:26:07.512Z,8.10
2018-10-18T21:28:39.716Z,7.77
2018-10-18T21:31:11.399Z,8.37
2018-10-18T21:33:43.483Z,8.90
2018-10-18T21:36:15.388Z,9.47
2018-10-18T21:38:47.392Z,12.93
2018-10-18T21:41:19.396Z,11.53
2018-10-18T21:43:51.248Z,9.83
2018-10-18T21:46:23.643Z,8.97
2018-10-18T21:48:57.841Z,6.80
2018-10-18T21:51:29.970Z,17.30
2018-10-18T21:54:02.226Z,13.73
2018-10-18T21:56:34.246Z,11.83
2018-10-18T21:59:07.119Z,9.97
2018-10-18T22:01:40.551Z,7.60
2018-10-18T22:04:12.897Z,10.43
2018-10-18T22:06:45.455Z,10.93
2018-10-18T22:09:18.694Z,11.33
2018-10-18T22:11:50.703Z,15.17
2018-10-18T22:14:23.556Z,12.93
2018-10-18T22:16:56.247Z,11.27
2018-10-18T22:19:28.444Z,10.70
2018-10-18T22:21:59.976Z,12.47
2018-10-18T22:24:32.013Z,14.67
2018-10-18T22:27:03.973Z,13.90
2018-10-18T22:29:35.987Z,13.67
2018-10-18T22:32:07.925Z,13.43
2018-10-18T22:34:40.664Z,13.63
2018-10-18T22:37:12.526Z,15.27
2018-10-18T22:39:44.829Z,16.63
2018-10-18T22:42:17.229Z,20.67
2018-10-18T22:44:49.221Z,19.70
2018-10-18T22:47:21.184Z,15.50
2018-10-18T22:49:53.116Z,13.83
2018-10-18T22:52:25.104Z,11.73
2018-10-18T22:54:57.004Z,9.13
2018-10-18T22:57:28.776Z,13.60
2018-10-18T23:00:00.775Z,11.23
2018-10-18T23:02:33.364Z,11.27
2018-10-18T23:05:05.686Z,14.80
2018-10-18T23:07:37.529Z,13.30
2018-10-18T23:10:10.120Z,12.43
2018-10-18T23:12:41.984Z,17.27
2018-10-18T23:15:14.159Z,26.27
2018-10-18T23:17:46.007Z,13.40
2018-10-18T23:20:17.968Z,11.93
2018-10-18T23:22:50.171Z,11.50
2018-10-18T23:25:21.875Z,16.33
2018-10-18T23:27:53.908Z,12.87
2018-10-18T23:30:26.256Z,10.83
2018-10-18T23:32:58.136Z,11.10
2018-10-18T23:35:30.483Z,12.60
2018-10-18T23:38:02.444Z,10.13
2018-10-18T23:40:34.484Z,13.40
2018-10-18T23:43:07.048Z,16.17
2018-10-18T23:45:39.277Z,11.67
2018-10-18T23:48:11.086Z,12.73
2018-10-18T23:50:42.947Z,12.17
2018-10-18T23:53:15.078Z,15.70
2018-10-18T23:55:46.880Z,13.67
2018-10-18T23:58:18.630Z,11.57
